Hauptseite
METAR-TAF:

METAR-TAF

Flughäfen :

Campbeltown Airport

Campbeltown, Schottland

Breite: 55-26-14N, Länge: 005-41-11W, Höhe: 13 m

Beobachtung

Neuester Wetterbericht von vor 20 Stunden und 32 Minuten, um 08:50 UTC
Wind 6 kt aus Ost/Südost
Temperatur 15°C
Luftfeuchtigkeit 72%
Luftdruck 1015 hPa
Sichtweite 10 km oder mehr
Leicht bewölkt in der Höhe von 1600 ft

METAR: EGEC 080850Z 12006KT 9999 FEW016 15/10 Q1015

Zeit: 06:22 (05:22 UTC)

Prognose

Neuester Wetterbericht von vor 22 Stunden und 23 Minuten, um 06:59 UTC
Gültige Prognose vom 08 um 07 UTC bis 08 um 10 UTC
Wind 6 kt aus Ost/Südost
Sichtweite 10 km oder mehr
Leicht bewölkt in der Höhe von 1400 ft
Aufgelockert bewölkt in der Höhe von 2400 ft

TAF: EGEC 080659Z 0807/0810 12006KT 9999 FEW014 SCT024

Wetterbeobachtungen und Prognosen von mehr als 4000 Flughäfen (METAR und TAF Bericht).

Die verfügbaren Stationen werden durch gelbe und rote Markierungen auf der Karte dargestellt.

Führen Sie die Maus auf sie, um den Namen der Station zu sehen.

Darauf klicken, um die Beobachtung von Wetterbeobachtungen und Prognosen zu sehen.

Um die Karte zu ändern : klicken Sie auf den grünen Tasten mit einem schwarzen Kreuz Zum Vergrößern, auf den grünen Button mit einem Gedankenstrich zu verkleinern, oder auf die grünen Pfeile für benachbarte Karten.


METAR-TAF: